Time;durP1;ratioP1;P1;durP2;ratioP2;P2;SDS_P1;SDS_P2;PMS_P1;PMS_P2;Temp;Humidity;BMP_temperature;BMP_pressure;BME280_temperature;BME280_humidity;BME280_pressure;Samples;Min_cycle;Max_cycle;Signal;HPM_P1;HPM_P2
2021/05/03 00:00:07;;;;;;;9.73;5.68;;;;;;;2.16;71.59;99858.88;5014211;28;20038;-60
2021/05/03 00:02:36;;;;;;;7.60;5.15;;;;;;;2.18;72.49;99864.81;5014856;28;20029;-60
2021/05/03 00:05:05;;;;;;;13.30;6.32;;;;;;;2.14;71.75;99866.97;5014295;28;20400;-60
2021/05/03 00:07:31;;;;;;;8.30;5.60;;;;;;;2.09;71.14;99874.59;5014341;28;20058;-60
2021/05/03 00:09:56;;;;;;;10.68;6.03;;;;;;;2.13;71.26;99869.81;5014711;28;20037;-60
2021/05/03 00:12:21;;;;;;;7.00;5.50;;;;;;;2.17;70.91;99868.44;5014001;28;20091;-60
2021/05/03 00:14:47;;;;;;;10.27;5.13;;;;;;;2.19;70.96;99861.16;5014685;28;20045;-61
2021/05/03 00:17:12;;;;;;;9.00;5.85;;;;;;;2.13;70.76;99862.69;5013779;28;20085;-60
2021/05/03 00:19:38;;;;;;;8.63;5.97;;;;;;;2.11;70.83;99861.22;5013181;28;20034;-60
2021/05/03 00:22:03;;;;;;;7.32;5.93;;;;;;;2.06;71.22;99861.72;5014234;28;20481;-60
2021/05/03 00:24:29;;;;;;;8.13;6.00;;;;;;;2.01;71.03;99863.25;5014298;28;20034;-60
2021/05/03 00:26:54;;;;;;;10.38;6.72;;;;;;;1.97;71.55;99869.84;5013766;28;20042;-60
2021/05/03 00:29:20;;;;;;;8.30;6.07;;;;;;;1.90;71.51;99873.19;5014383;28;20048;-60
2021/05/03 00:31:45;;;;;;;8.27;5.97;;;;;;;1.86;71.59;99874.53;5013834;28;20439;-60
2021/05/03 00:34:11;;;;;;;7.72;6.03;;;;;;;1.78;72.22;99876.38;5014133;28;20029;-60
2021/05/03 00:36:36;;;;;;;8.73;5.28;;;;;;;1.78;72.46;99876.38;5013716;28;20050;-60
2021/05/03 00:39:02;;;;;;;7.10;5.63;;;;;;;1.90;71.81;99872.38;4996547;28;20398;-60
2021/05/03 00:41:27;;;;;;;8.55;6.05;;;;;;;1.87;71.73;99873.56;5013627;28;20037;-61
2021/05/03 00:43:53;;;;;;;8.00;6.13;;;;;;;1.89;72.20;99882.09;5014212;28;20480;-60
2021/05/03 00:46:20;;;;;;;9.80;5.78;;;;;;;1.87;72.23;99873.56;5013670;28;20485;-60
2021/05/03 00:48:46;;;;;;;7.28;6.13;;;;;;;1.85;71.76;99874.72;5014009;28;20181;-60
2021/05/03 00:51:11;;;;;;;7.93;5.80;;;;;;;1.80;72.12;99869.09;5012897;28;20092;-60
2021/05/03 00:53:37;;;;;;;7.63;5.82;;;;;;;1.79;72.24;99870.09;5012533;28;20029;-60
2021/05/03 00:56:03;;;;;;;8.10;6.28;;;;;;;1.80;72.74;99869.94;5013311;28;20183;-60
2021/05/03 00:58:28;;;;;;;8.93;6.05;;;;;;;1.73;72.40;99874.25;4996225;28;20402;-60
2021/05/03 01:00:53;;;;;;;8.98;6.30;;;;;;;1.66;72.55;99867.97;4995825;28;20489;-60
2021/05/03 01:03:19;;;;;;;14.05;6.45;;;;;;;1.68;72.52;99868.63;4979731;28;20022;-60
2021/05/03 01:05:44;;;;;;;12.90;6.32;;;;;;;1.82;72.55;99873.22;5013208;28;20492;-61
2021/05/03 01:08:10;;;;;;;9.98;6.30;;;;;;;1.83;72.45;99872.22;5013259;28;20077;-60
2021/05/03 01:10:35;;;;;;;10.63;7.00;;;;;;;1.82;71.80;99875.03;5013035;28;20088;-60
2021/05/03 01:13:00;;;;;;;10.82;6.82;;;;;;;1.81;72.05;99876.03;4995860;28;20028;-60
2021/05/03 01:15:26;;;;;;;9.73;6.60;;;;;;;1.74;72.52;99875.88;5013017;28;20034;-60
2021/05/03 01:17:56;;;;;;;8.90;6.68;;;;;;;1.77;72.32;99878.19;5013321;28;20021;-60
2021/05/03 01:20:23;;;;;;;10.35;7.00;;;;;;;1.71;72.84;99870.94;5012949;28;20360;-60
2021/05/03 01:22:48;;;;;;;8.55;6.55;;;;;;;1.63;72.92;99878.91;5013040;28;20026;-60
2021/05/03 01:25:14;;;;;;;10.15;6.55;;;;;;;1.66;72.78;99874.09;4995059;28;20029;-60
2021/05/03 01:27:39;;;;;;;9.45;6.53;;;;;;;1.64;72.75;99870.78;5013220;28;20113;-60
2021/05/03 01:30:08;;;;;;;9.05;6.50;;;;;;;1.84;71.85;99876.50;5012825;28;20026;-60
2021/05/03 01:32:33;;;;;;;8.07;6.40;;;;;;;1.73;72.14;99874.25;5012966;28;20484;-60
2021/05/03 01:34:59;;;;;;;8.48;6.15;;;;;;;1.69;72.34;99875.56;5013025;28;20052;-60
2021/05/03 01:37:24;;;;;;;9.90;6.93;;;;;;;1.67;72.14;99872.25;5012512;28;20107;-60
2021/05/03 01:39:50;;;;;;;12.07;6.78;;;;;;;1.63;72.41;99871.78;5013050;28;20034;-60
2021/05/03 01:42:15;;;;;;;9.40;6.60;;;;;;;1.47;72.56;99877.94;5012552;28;20395;-60
2021/05/03 01:44:42;;;;;;;10.82;6.47;;;;;;;1.45;73.19;99879.91;5013221;28;20026;-60
2021/05/03 01:47:07;;;;;;;8.70;6.32;;;;;;;1.37;73.45;99882.53;5011427;28;20084;-60
2021/05/03 01:49:33;;;;;;;10.23;6.85;;;;;;;1.24;73.59;99882.22;5012968;28;20419;-60
2021/05/03 01:51:58;;;;;;;10.75;7.25;;;;;;;1.14;74.29;99884.22;4995033;28;20117;-60
2021/05/03 01:54:23;;;;;;;8.95;6.72;;;;;;;1.07;74.77;99881.41;5011964;28;20034;-60
2021/05/03 01:56:49;;;;;;;9.30;6.57;;;;;;;1.05;75.73;99883.41;5012612;28;20346;-60
2021/05/03 01:59:14;;;;;;;10.20;6.47;;;;;;;1.02;75.40;99895.13;4995242;28;20034;-60
2021/05/03 02:01:40;;;;;;;8.55;6.72;;;;;;;0.98;74.92;99893.78;5012586;28;20104;-60
2021/05/03 02:04:06;;;;;;;11.65;6.93;;;;;;;0.90;75.15;99895.59;5013144;28;20030;-60
2021/05/03 02:06:32;;;;;;;12.07;6.97;;;;;;;0.87;75.57;99904.66;5015426;28;20396;-60
2021/05/03 02:08:57;;;;;;;7.97;6.57;;;;;;;0.84;75.39;99899.72;5016695;28;20046;-60
2021/05/03 02:11:23;;;;;;;8.73;5.97;;;;;;;0.76;75.27;99895.25;5016459;28;20030;-60
2021/05/03 02:13:48;;;;;;;8.13;6.35;;;;;;;0.92;74.97;99899.72;5015771;28;20034;-60
2021/05/03 02:16:14;;;;;;;11.45;7.43;;;;;;;0.94;74.92;99904.84;5016313;28;20037;-60
2021/05/03 02:18:39;;;;;;;11.45;6.68;;;;;;;0.74;74.78;99897.22;5016138;28;20040;-60
2021/05/03 02:21:04;;;;;;;8.18;5.93;;;;;;;0.68;75.96;99897.88;4998576;28;20432;-60
2021/05/03 02:23:30;;;;;;;11.07;7.55;;;;;;;0.81;75.11;99900.03;5016640;28;20030;-60
2021/05/03 02:25:55;;;;;;;8.20;6.32;;;;;;;0.79;75.04;99894.09;5016064;28;20046;-60
2021/05/03 02:28:21;;;;;;;10.68;6.78;;;;;;;0.75;75.08;99898.03;5015336;28;20101;-61
2021/05/03 02:30:46;;;;;;;11.80;6.65;;;;;;;0.76;75.51;99894.44;5014887;28;20042;-60
2021/05/03 02:33:11;;;;;;;10.90;6.20;;;;;;;0.63;75.08;99887.81;5016519;28;20037;-60
2021/05/03 02:35:37;;;;;;;10.00;6.95;;;;;;;0.58;75.55;99886.66;5015913;28;20042;-60
2021/05/03 02:38:03;;;;;;;13.02;7.18;;;;;;;0.56;76.11;99892.06;5016354;28;20037;-60
2021/05/03 02:40:29;;;;;;;10.35;7.10;;;;;;;0.57;75.78;99895.53;5014846;28;20042;-60
2021/05/03 02:42:56;;;;;;;9.45;6.05;;;;;;;0.48;75.95;99897.34;5016347;28;20036;-60
2021/05/03 02:45:22;;;;;;;12.65;7.30;;;;;;;0.48;76.06;99892.06;5015814;28;20038;-60
2021/05/03 02:47:47;;;;;;;8.63;6.25;;;;;;;0.45;76.35;99897.66;5016093;28;20029;-60
2021/05/03 02:50:14;;;;;;;7.88;6.70;;;;;;;0.40;76.46;99903.41;5015564;28;20049;-60
2021/05/03 02:52:39;;;;;;;10.80;7.18;;;;;;;0.31;76.50;99895.63;4998675;28;20026;-60
2021/05/03 02:55:05;;;;;;;7.72;6.63;;;;;;;0.30;77.10;99899.25;5015356;28;20358;-60
2021/05/03 02:57:31;;;;;;;9.57;7.25;;;;;;;0.46;76.56;99901.94;5007851;28;20154;-60
2021/05/03 02:59:56;;;;;;;12.35;6.97;;;;;;;0.33;76.21;99904.22;4978893;28;20030;-60
2021/05/03 03:02:21;;;;;;;9.07;7.13;;;;;;;0.09;77.45;99904.94;5008369;28;20038;-60
2021/05/03 03:04:47;;;;;;;9.73;7.38;;;;;;;0.02;78.41;99907.38;5015851;28;20052;-60
2021/05/03 03:07:12;;;;;;;10.35;7.88;;;;;;;0.07;78.71;99914.81;4997497;28;20046;-60
2021/05/03 03:09:38;;;;;;;8.25;6.50;;;;;;;-0.12;78.16;99916.69;4997297;28;20088;-60
2021/05/03 03:12:05;;;;;;;12.10;7.47;;;;;;;-0.12;79.32;99911.44;5029272;28;20393;-60
2021/05/03 03:14:30;;;;;;;8.30;6.68;;;;;;;-0.13;77.96;99908.94;5013493;28;20396;-60
2021/05/03 03:16:56;;;;;;;11.90;7.32;;;;;;;-0.24;78.07;99904.78;4999019;28;20043;-60
2021/05/03 03:19:21;;;;;;;7.75;6.35;;;;;;;-0.20;78.54;99907.91;5008145;28;20033;-60
2021/05/03 03:21:46;;;;;;;11.27;7.15;;;;;;;-0.18;78.42;99909.41;4996104;28;20048;-60
2021/05/03 03:24:12;;;;;;;11.27;7.07;;;;;;;-0.12;80.15;99907.97;5014353;28;20040;-60
2021/05/03 03:26:37;;;;;;;12.82;7.50;;;;;;;-0.04;78.45;99902.75;4996930;28;20097;-60
2021/05/03 03:29:04;;;;;;;9.85;7.05;;;;;;;0.12;78.46;99909.88;4994883;28;20345;-60
2021/05/03 03:31:29;;;;;;;10.43;6.93;;;;;;;0.17;77.53;99911.06;4994205;28;20421;-59
2021/05/03 03:33:55;;;;;;;13.35;7.35;;;;;;;0.21;77.37;99909.75;4994566;28;20030;-60
2021/05/03 03:36:20;;;;;;;9.02;7.18;;;;;;;0.19;77.11;99903.81;5009190;28;20042;-60
2021/05/03 03:38:45;;;;;;;8.90;7.05;;;;;;;0.14;77.46;99906.09;5014265;28;20030;-60
2021/05/03 03:41:11;;;;;;;12.35;7.25;;;;;;;0.17;77.20;99905.78;5005293;28;20051;-60
2021/05/03 03:43:36;;;;;;;11.15;7.65;;;;;;;0.24;76.96;99902.53;5003698;28;20030;-60
2021/05/03 03:46:02;;;;;;;11.32;7.72;;;;;;;0.31;76.69;99903.53;5012408;28;20496;-60
2021/05/03 03:48:27;;;;;;;8.98;7.22;;;;;;;0.30;76.86;99899.25;5012239;28;20037;-60
2021/05/03 03:50:53;;;;;;;10.05;6.97;;;;;;;0.41;76.44;99896.31;5012939;28;20529;-60
2021/05/03 03:53:18;;;;;;;10.68;7.78;;;;;;;0.15;75.84;99904.28;5013694;28;20040;-59
2021/05/03 03:55:43;;;;;;;13.30;7.22;;;;;;;0.31;76.83;99904.38;5013574;28;20037;-60
2021/05/03 03:58:09;;;;;;;10.95;6.63;;;;;;;0.27;77.08;99910.13;4996443;28;20034;-60
2021/05/03 04:00:34;;;;;;;11.32;7.07;;;;;;;0.18;77.51;99910.09;5013549;28;20349;-60
2021/05/03 04:03:00;;;;;;;12.27;6.32;;;;;;;0.01;77.73;99903.09;5013727;28;20021;-59
2021/05/03 04:08:17;;;;;;;12.85;6.95;;;;;;;0.08;78.20;99917.28;4991529;28;644231;-59
2021/05/03 04:10:57;;;;;;;13.70;7.40;;;;;;;-0.03;78.13;99909.66;5013702;28;20454;-60
2021/05/03 04:24:05;;;;;;;12.50;7.25;;;;;;;1.38;73.42;99918.56;5014365;28;20040;-60
2021/05/03 04:26:30;;;;;;;8.57;5.80;;;;;;;1.86;70.61;99930.03;4995516;28;20061;-60
2021/05/03 04:28:56;;;;;;;9.43;5.90;;;;;;;1.94;70.49;99922.06;5014515;28;20026;-60
2021/05/03 04:31:22;;;;;;;7.30;5.70;;;;;;;1.79;70.96;99929.06;5013596;28;20110;-60
2021/05/03 04:33:47;;;;;;;8.25;5.70;;;;;;;2.79;67.04;99931.16;5014236;28;20321;-60
2021/05/03 04:36:13;;;;;;;8.80;5.90;;;;;;;3.79;63.09;99936.31;5013721;28;20074;-60
2021/05/03 04:38:38;;;;;;;7.53;5.50;;;;;;;5.02;59.45;99928.66;5014018;28;20041;-61
2021/05/03 04:41:04;;;;;;;8.82;5.65;;;;;;;3.77;62.29;99934.84;5013523;28;20120;-60
2021/05/03 04:43:29;;;;;;;7.47;5.22;;;;;;;2.74;65.95;99936.13;5013968;28;20036;-61
2021/05/03 04:45:55;;;;;;;8.30;5.97;;;;;;;3.00;65.21;99939.28;5013523;28;20034;-60
2021/05/03 04:48:20;;;;;;;7.57;5.20;;;;;;;3.97;62.65;99938.63;5013891;28;20088;-60
2021/05/03 04:50:46;;;;;;;7.80;5.03;;;;;;;5.36;56.72;99944.72;5013330;28;20042;-60
2021/05/03 04:53:11;;;;;;;9.75;5.22;;;;;;;5.43;56.09;99943.97;4996241;28;20026;-61
2021/05/03 04:55:37;;;;;;;7.38;5.00;;;;;;;4.31;60.49;99948.69;4996077;28;20038;-60
2021/05/03 04:58:02;;;;;;;8.23;5.13;;;;;;;4.89;58.92;99940.81;5013752;28;20117;-61
2021/05/03 05:00:28;;;;;;;7.25;4.72;;;;;;;6.21;54.49;99950.09;5013238;28;20115;-61
2021/05/03 05:02:53;;;;;;;9.18;4.60;;;;;;;6.70;53.45;99949.91;5013688;28;20053;-61
2021/05/03 05:05:19;;;;;;;10.70;5.07;;;;;;;8.48;48.96;99943.16;5013279;28;20048;-61
2021/05/03 05:07:44;;;;;;;7.05;4.25;;;;;;;8.81;47.42;99946.53;5013461;28;20045;-61
2021/05/03 05:10:10;;;;;;;7.13;4.35;;;;;;;5.61;56.24;99949.66;5013332;28;20033;-61
2021/05/03 05:12:35;;;;;;;4.97;4.10;;;;;;;6.61;54.77;99945.75;5013674;28;20014;-61
2021/05/03 05:15:01;;;;;;;9.73;4.57;;;;;;;6.43;54.82;99948.16;5013201;28;20076;-61
2021/05/03 05:17:27;;;;;;;5.22;4.20;;;;;;;5.76;56.82;99947.72;5013551;28;20067;-60
2021/05/03 05:19:52;;;;;;;7.57;4.05;;;;;;;7.19;52.63;99947.16;4995768;28;20490;-61
2021/05/03 05:22:18;;;;;;;10.45;4.43;;;;;;;7.64;51.77;99956.25;5012847;28;20194;-61
2021/05/03 05:24:43;;;;;;;7.82;4.35;;;;;;;8.78;47.33;99960.31;4995661;28;20480;-61
2021/05/03 05:27:09;;;;;;;7.13;4.55;;;;;;;6.74;53.46;99960.16;5012924;28;20042;-61
2021/05/03 05:29:35;;;;;;;5.47;3.95;;;;;;;8.25;49.77;99956.97;4995867;28;20465;-61
2021/05/03 05:32:00;;;;;;;6.47;4.30;;;;;;;8.79;48.28;99953.13;5012719;28;20100;-61
2021/05/03 05:34:26;;;;;;;5.47;4.07;;;;;;;8.81;47.48;99957.22;4995877;28;20088;-61
2021/05/03 05:36:51;;;;;;;5.57;4.20;;;;;;;8.45;48.23;99954.28;5011683;28;20404;-61
2021/05/03 05:39:17;;;;;;;6.30;4.05;;;;;;;11.06;42.05;99957.22;5013154;28;20072;-61
2021/05/03 05:41:43;;;;;;;8.00;4.03;;;;;;;10.36;43.86;99961.19;5012897;28;20361;-60
2021/05/03 05:44:09;;;;;;;7.13;4.00;;;;;;;8.18;49.54;99962.31;5013379;28;20021;-61
2021/05/03 05:46:34;;;;;;;5.40;3.63;;;;;;;8.30;48.98;99960.66;5012798;28;20485;-61
2021/05/03 05:49:00;;;;;;;4.97;3.97;;;;;;;10.31;43.84;99958.38;4995580;28;20041;-61
2021/05/03 05:51:26;;;;;;;6.88;4.60;;;;;;;7.37;52.49;99954.59;5012681;28;20495;-61
2021/05/03 05:53:51;;;;;;;5.75;4.50;;;;;;;7.54;51.17;99958.50;5013056;28;20437;-60
2021/05/03 05:56:16;;;;;;;7.97;4.50;;;;;;;6.34;54.19;99959.97;4995049;28;20045;-61
2021/05/03 05:58:42;;;;;;;5.63;4.47;;;;;;;7.29;52.84;99963.59;5013040;28;20034;-61
2021/05/03 06:01:07;;;;;;;6.95;4.32;;;;;;;5.96;56.47;99969.16;5012638;28;20053;-61
2021/05/03 06:03:33;;;;;;;10.13;4.60;;;;;;;5.99;58.31;99965.28;5013064;28;20038;-61
2021/05/03 06:05:58;;;;;;;5.85;4.88;;;;;;;5.05;60.90;99965.50;5012577;28;20038;-60
2021/05/03 06:08:24;;;;;;;7.53;5.22;;;;;;;6.81;55.73;99967.16;5012742;28;20050;-60
2021/05/03 06:10:50;;;;;;;7.75;4.97;;;;;;;6.23;56.12;99958.69;5012669;28;20113;-60
2021/05/03 06:13:15;;;;;;;6.18;4.90;;;;;;;7.85;51.93;99960.53;5013001;28;20519;-61
2021/05/03 06:15:41;;;;;;;6.65;4.88;;;;;;;7.97;51.49;99958.88;5012335;28;20460;-61
2021/05/03 06:18:07;;;;;;;7.95;4.35;;;;;;;5.22;58.86;99964.25;5012841;28;20021;-60
2021/05/03 06:20:34;;;;;;;6.38;4.90;;;;;;;9.40;48.46;99970.47;5011975;28;20381;-61
2021/05/03 06:23:03;;;;;;;5.28;4.30;;;;;;;8.34;50.68;99971.75;5012858;28;20475;-61
2021/05/03 06:25:28;;;;;;;6.05;4.50;;;;;;;9.70;45.47;99965.28;5012572;28;20477;-61
2021/05/03 06:27:54;;;;;;;6.30;4.43;;;;;;;9.36;47.64;99969.25;5012926;28;20077;-61
2021/05/03 06:30:22;;;;;;;7.80;4.38;;;;;;;11.83;41.50;99966.16;5012282;28;20380;-61
2021/05/03 06:32:47;;;;;;;7.00;4.32;;;;;;;10.78;44.40;99966.66;5012831;28;20022;-61
2021/05/03 06:35:13;;;;;;;5.55;4.35;;;;;;;13.03;39.24;99961.19;5012357;28;20053;-62
2021/05/03 06:37:38;;;;;;;6.55;4.38;;;;;;;14.66;35.83;99965.66;5012846;28;20022;-62
2021/05/03 06:40:04;;;;;;;6.45;4.13;;;;;;;11.77;41.74;99959.03;5012391;28;20026;-61
2021/05/03 06:42:29;;;;;;;7.20;4.70;;;;;;;8.58;50.95;99948.88;5012627;28;20144;-62
2021/05/03 06:44:55;;;;;;;7.05;4.75;;;;;;;8.87;51.11;99949.38;5011381;28;20034;-62
2021/05/03 06:47:20;;;;;;;7.88;5.03;;;;;;;8.48;51.89;99943.97;5012229;28;20037;-62
2021/05/03 06:49:46;;;;;;;7.05;5.15;;;;;;;8.02;53.11;99946.78;5013515;28;20022;-62
2021/05/03 06:52:11;;;;;;;7.28;5.18;;;;;;;7.99;53.62;99948.81;5006904;28;20072;-61
2021/05/03 06:54:36;;;;;;;6.07;4.20;;;;;;;6.16;59.51;99958.66;5013320;28;20413;-61
2021/05/03 06:57:02;;;;;;;7.05;5.68;;;;;;;7.71;56.19;99956.22;5012783;28;20612;-61
2021/05/03 06:59:27;;;;;;;6.65;5.13;;;;;;;8.72;52.72;99952.34;5014076;28;20033;-61
2021/05/03 07:01:53;;;;;;;7.00;5.20;;;;;;;7.56;55.48;99951.94;5014118;28;20041;-62
2021/05/03 07:04:19;;;;;;;13.00;5.80;;;;;;;6.64;59.15;99956.03;5015724;28;20063;-61
2021/05/03 07:06:44;;;;;;;8.30;5.43;;;;;;;6.42;59.19;99957.19;5015446;28;20049;-61
2021/05/03 07:09:10;;;;;;;10.85;5.82;;;;;;;6.70;59.15;99955.25;5015756;28;20050;-61
2021/05/03 07:11:36;;;;;;;8.80;5.90;;;;;;;7.14;57.11;99955.78;4997923;28;20093;-61
2021/05/03 07:14:02;;;;;;;8.30;5.55;;;;;;;7.67;55.22;99968.34;5015764;28;20072;-61
2021/05/03 07:16:28;;;;;;;10.13;5.30;;;;;;;8.24;54.50;99958.84;4997726;28;20030;-61
2021/05/03 07:18:53;;;;;;;8.82;5.30;;;;;;;7.66;54.83;99961.34;5015612;28;20040;-62
2021/05/03 07:21:19;;;;;;;7.43;5.43;;;;;;;8.26;53.75;99966.63;5014996;28;20041;-61
2021/05/03 07:23:48;;;;;;;8.48;5.75;;;;;;;9.68;49.63;99962.84;5015806;28;20357;-60
2021/05/03 07:26:14;;;;;;;9.10;5.88;;;;;;;9.23;50.25;99960.25;5003058;28;20563;-60
2021/05/03 07:28:39;;;;;;;8.35;5.50;;;;;;;8.94;51.17;99960.88;5004532;28;20040;-60
2021/05/03 07:31:06;;;;;;;7.85;5.50;;;;;;;9.65;49.34;99960.59;5013466;28;20046;-60
2021/05/03 07:33:32;;;;;;;6.90;5.53;;;;;;;10.71;45.92;99957.91;4995548;28;20372;-61
2021/05/03 07:35:57;;;;;;;9.88;5.65;;;;;;;10.98;45.51;99961.03;4999861;28;20089;-61
2021/05/03 07:38:23;;;;;;;6.53;4.70;;;;;;;11.41;43.56;99955.47;5001884;28;20109;-61
2021/05/03 07:40:48;;;;;;;6.47;5.38;;;;;;;12.34;42.77;99953.09;5010419;28;20034;-61
2021/05/03 07:43:14;;;;;;;6.97;5.18;;;;;;;12.48;41.58;99953.63;5015383;28;20378;-61
2021/05/03 07:45:39;;;;;;;7.18;4.93;;;;;;;13.20;40.39;99955.03;4996926;28;20061;-63
2021/05/03 07:48:04;;;;;;;9.15;5.38;;;;;;;13.52;38.62;99953.47;4995542;28;20034;-61
2021/05/03 07:50:30;;;;;;;8.90;5.15;;;;;;;13.87;36.75;99954.28;4995421;28;20057;-61
2021/05/03 07:52:57;;;;;;;8.00;4.80;;;;;;;13.59;37.72;99953.31;4995815;28;20470;-61
2021/05/03 07:55:23;;;;;;;7.22;5.20;;;;;;;13.50;37.60;99944.81;5005409;28;20042;-61
2021/05/03 07:57:48;;;;;;;7.75;5.00;;;;;;;13.14;40.16;99940.66;5015031;28;20357;-61
2021/05/03 08:00:14;;;;;;;8.18;5.60;;;;;;;10.04;48.40;99942.53;5014488;28;20080;-61
2021/05/03 08:02:39;;;;;;;9.38;5.70;;;;;;;9.69;49.05;99937.69;5013628;28;20384;-61
2021/05/03 08:05:05;;;;;;;10.35;6.18;;;;;;;11.08;45.51;99934.47;5029625;28;20061;-61
2021/05/03 08:07:31;;;;;;;7.63;5.80;;;;;;;10.06;46.77;99935.09;5003384;28;20484;-61
2021/05/03 08:09:56;;;;;;;9.60;5.85;;;;;;;12.36;43.54;99937.53;4999115;28;20045;-61
2021/05/03 08:12:22;;;;;;;10.10;5.60;;;;;;;12.92;43.90;99933.25;5005663;28;20041;-61
2021/05/03 08:14:49;;;;;;;10.27;5.65;;;;;;;14.45;38.23;99934.88;5001843;28;20057;-62
2021/05/03 08:17:16;;;;;;;7.25;4.90;;;;;;;11.32;44.46;99927.31;4999460;28;20040;-62
2021/05/03 08:19:41;;;;;;;10.52;5.25;;;;;;;12.45;42.74;99932.59;5001897;28;20356;-62
2021/05/03 08:22:06;;;;;;;7.90;5.30;;;;;;;11.39;44.53;99922.69;5003681;28;20089;-62
2021/05/03 08:24:32;;;;;;;8.93;5.47;;;;;;;13.25;40.13;99925.50;5013528;28;20022;-61
2021/05/03 08:26:59;;;;;;;9.60;5.38;;;;;;;12.40;41.75;99916.38;5001756;28;20540;-61
2021/05/03 08:29:24;;;;;;;9.40;5.80;;;;;;;14.05;38.24;99918.16;5006054;28;20029;-61
2021/05/03 08:31:49;;;;;;;8.18;5.72;;;;;;;13.31;39.01;99924.56;5011088;28;20042;-62
2021/05/03 08:34:15;;;;;;;12.02;5.95;;;;;;;11.56;43.16;99924.69;5012162;28;20045;-61
2021/05/03 08:36:41;;;;;;;8.75;6.18;;;;;;;12.05;42.29;99920.75;5004678;28;20054;-62
2021/05/03 08:39:06;;;;;;;9.15;5.95;;;;;;;14.19;38.93;99928.34;4976775;28;20034;-61
2021/05/03 08:41:35;;;;;;;10.43;6.18;;;;;;;13.67;38.45;99920.56;4991071;28;20034;-62
2021/05/03 08:44:01;;;;;;;11.18;5.80;;;;;;;14.22;36.73;99921.63;4993413;28;20054;-63
2021/05/03 08:46:31;;;;;;;8.02;5.70;;;;;;;13.52;38.81;99907.69;4994465;28;20117;-62
2021/05/03 08:49:17;;;;;;;9.13;6.07;;;;;;;13.37;38.19;99910.13;4994783;28;20022;-61
2021/05/03 08:56:48;;;;;;;7.85;4.38;;;;;;;13.67;32.55;99901.72;4993833;28;20504;-61
2021/05/03 08:59:14;;;;;;;7.85;4.43;;;;;;;16.13;28.88;99894.28;4994417;28;20401;-62
2021/05/03 09:01:47;;;;;;;6.03;4.25;;;;;;;15.80;28.67;99895.44;4993867;28;20042;-62
2021/05/03 09:04:13;;;;;;;8.20;4.13;;;;;;;15.12;29.65;99899.72;4994243;28;20037;-61
2021/05/03 09:06:39;;;;;;;7.38;4.28;;;;;;;17.08;26.03;99895.16;5008945;28;20357;-61
2021/05/03 09:09:07;;;;;;;5.57;3.90;;;;;;;16.73;25.55;99886.66;4976460;28;20063;-62
2021/05/03 09:11:34;;;;;;;6.28;4.35;;;;;;;16.67;26.32;99886.91;4993485;28;20042;-60
2021/05/03 09:14:09;;;;;;;5.95;4.13;;;;;;;17.52;25.87;99887.28;4993734;28;20437;-61
2021/05/03 09:16:41;;;;;;;7.38;3.78;;;;;;;17.28;24.76;99881.63;4993553;28;20563;-61
2021/05/03 09:19:06;;;;;;;6.70;3.75;;;;;;;15.21;27.26;99880.13;4993911;28;20037;-61
2021/05/03 09:21:33;;;;;;;6.88;3.95;;;;;;;16.01;26.40;99874.75;4993410;28;20058;-61
2021/05/03 09:24:16;;;;;;;5.93;3.50;;;;;;;17.45;24.22;99881.34;4993927;28;20064;-61
2021/05/03 09:26:52;;;;;;;6.75;3.72;;;;;;;18.13;23.28;99874.75;4993424;28;20468;-61
2021/05/03 09:29:30;;;;;;;7.85;3.80;;;;;;;17.35;23.89;99865.91;4993791;28;20022;-61
2021/05/03 09:32:19;;;;;;;8.30;3.80;;;;;;;18.42;23.28;99866.72;4993370;28;20045;-61
2021/05/03 09:34:46;;;;;;;6.50;4.18;;;;;;;17.15;24.55;99866.72;4993857;28;20109;-61
2021/05/03 09:37:32;;;;;;;6.95;4.25;;;;;;;15.70;26.95;99862.94;5008128;28;20049;-61
2021/05/03 09:40:08;;;;;;;6.05;3.65;;;;;;;16.39;25.63;99860.03;4993609;28;20034;-61
2021/05/03 09:42:53;;;;;;;5.35;3.42;;;;;;;17.31;25.10;99853.19;4993391;28;20042;-61
2021/05/03 09:45:26;;;;;;;8.15;3.78;;;;;;;16.00;25.05;99845.25;4975902;28;20034;-61
2021/05/03 09:47:53;;;;;;;7.43;3.50;;;;;;;15.49;26.35;99841.16;4976159;28;20050;-61
2021/05/03 09:50:30;;;;;;;5.05;3.50;;;;;;;14.34;28.16;99841.44;4993242;28;20077;-61
2021/05/03 09:53:09;;;;;;;7.45;3.63;;;;;;;14.28;29.41;99838.91;5008077;28;20370;-61
2021/05/03 09:55:48;;;;;;;9.20;4.00;;;;;;;15.25;28.33;99832.63;4993477;28;20042;-61
2021/05/03 09:58:18;;;;;;;5.07;3.00;;;;;;;16.94;25.28;99830.69;4993690;28;20101;-61
2021/05/03 10:00:54;;;;;;;5.03;3.38;;;;;;;17.53;22.82;99837.44;4993104;28;20130;-61
2021/05/03 10:03:42;;;;;;;9.70;3.10;;;;;;;17.99;21.63;99831.09;4993474;28;20023;-61
2021/05/03 10:06:09;;;;;;;5.85;3.15;;;;;;;17.50;24.90;99818.19;4993082;28;20391;-61
2021/05/03 10:08:35;;;;;;;5.47;3.35;;;;;;;16.08;25.03;99815.84;4993247;28;20042;-61
2021/05/03 10:11:04;;;;;;;6.03;3.10;;;;;;;16.47;25.85;99820.81;4993007;28;20125;-61
2021/05/03 10:13:30;;;;;;;6.88;3.28;;;;;;;16.70;24.18;99821.41;4993288;28;20076;-61
2021/05/03 10:15:56;;;;;;;7.97;3.15;;;;;;;16.59;25.28;99809.75;4991594;28;20034;-61
2021/05/03 10:18:21;;;;;;;8.93;3.40;;;;;;;15.65;26.84;99806.97;5008486;28;20528;-61
2021/05/03 10:20:46;;;;;;;8.68;3.47;;;;;;;17.02;24.51;99813.06;4992857;28;20397;-61
2021/05/03 10:23:12;;;;;;;9.30;3.38;;;;;;;15.79;25.80;99801.91;5006606;28;20041;-61
2021/05/03 10:25:38;;;;;;;7.38;3.70;;;;;;;17.07;24.09;99798.72;4997175;28;20133;-61
2021/05/03 10:28:04;;;;;;;7.88;3.50;;;;;;;16.37;25.29;99791.03;5016505;28;20026;-64
2021/05/03 10:30:29;;;;;;;7.47;3.65;;;;;;;17.27;26.65;99809.53;5014713;28;20034;-63
2021/05/03 10:33:02;;;;;;;6.82;3.65;;;;;;;16.36;26.86;99795.66;5016520;28;20033;-64
2021/05/03 10:35:37;;;;;;;5.32;3.60;;;;;;;15.59;27.11;99794.47;5014749;28;20042;-61
2021/05/03 10:38:03;;;;;;;7.50;4.47;;;;;;;16.18;29.36;99794.25;5016403;28;20084;-63
2021/05/03 10:40:34;;;;;;;6.65;4.25;;;;;;;17.09;26.45;99797.38;5015869;28;20157;-62
2021/05/03 10:43:03;;;;;;;6.68;3.60;;;;;;;16.41;25.64;99791.34;5015535;28;20030;-62
2021/05/03 10:48:53;;;;;;;14.48;4.47;;;;;;;15.95;28.10;99792.81;5016278;28;20064;-62
2021/05/03 10:51:33;;;;;;;10.27;5.03;;;;;;;15.44;26.49;99778.19;4999576;28;20042;-62
2021/05/03 10:54:18;;;;;;;7.82;4.40;;;;;;;15.84;30.91;99784.91;5016142;28;20021;-62
2021/05/03 10:56:43;;;;;;;6.55;4.30;;;;;;;16.04;26.04;99776.06;5015693;28;20065;-62
2021/05/03 10:59:10;;;;;;;10.18;5.35;;;;;;;16.53;27.04;99768.34;5016090;28;20084;-61
2021/05/03 11:01:53;;;;;;;5.97;3.80;;;;;;;16.51;26.04;99753.47;5015508;28;20089;-61
2021/05/03 11:04:23;;;;;;;8.68;4.15;;;;;;;15.53;29.75;99755.03;5016076;28;20030;-63
2021/05/03 11:06:48;;;;;;;7.05;4.53;;;;;;;15.06;28.40;99755.81;5015481;28;20042;-61
2021/05/03 11:09:32;;;;;;;5.10;3.70;;;;;;;14.26;29.06;99746.72;5015608;28;20053;-61
2021/05/03 11:12:00;;;;;;;5.53;3.63;;;;;;;13.85;29.87;99760.50;5015442;28;20152;-61
2021/05/03 11:14:30;;;;;;;5.68;4.38;;;;;;;14.42;33.02;99751.97;5015665;28;20018;-61
2021/05/03 11:17:06;;;;;;;5.88;4.05;;;;;;;13.42;30.18;99754.03;5015280;28;20041;-63
2021/05/03 11:22:21;;;;;;;5.88;3.85;;;;;;;13.66;36.12;99743.06;5000422;28;20053;-62
2021/05/03 11:24:54;;;;;;;4.27;3.40;;;;;;;13.66;31.20;99745.75;5015926;28;20026;-62
2021/05/03 11:27:46;;;;;;;5.85;3.80;;;;;;;13.04;31.95;99739.47;4998510;28;20040;-61
2021/05/03 11:30:16;;;;;;;6.15;3.75;;;;;;;13.19;31.90;99748.84;5014988;28;20069;-62
2021/05/03 11:32:41;;;;;;;6.00;3.97;;;;;;;14.14;30.07;99734.19;5015306;28;20487;-61
2021/05/03 11:40:39;;;;;;;6.55;3.92;;;;;;;15.57;27.27;99723.69;5014973;28;20117;-61
2021/05/03 11:43:34;;;;;;;6.50;3.70;;;;;;;15.05;27.87;99713.66;5015242;28;20022;-62
2021/05/03 11:46:06;;;;;;;4.75;3.53;;;;;;;15.05;27.49;99721.75;5000583;28;20401;-62
2021/05/03 11:48:33;;;;;;;5.72;3.67;;;;;;;15.50;26.67;99718.53;5015621;28;20030;-63
2021/05/03 11:51:06;;;;;;;5.35;3.63;;;;;;;15.69;26.72;99705.41;5014940;28;20034;-61
2021/05/03 11:53:41;;;;;;;5.75;3.60;;;;;;;15.41;27.24;99708.50;5015014;28;20420;-61
2021/05/03 11:56:29;;;;;;;5.50;3.20;;;;;;;14.79;26.55;99713.50;4981204;28;20026;-61
2021/05/03 11:58:56;;;;;;;4.80;2.92;;;;;;;14.86;26.61;99707.88;4997604;28;20034;-61
2021/05/03 12:01:23;;;;;;;5.68;3.40;;;;;;;14.43;27.54;99712.38;5014618;28;20034;-62
2021/05/03 12:03:49;;;;;;;4.55;3.20;;;;;;;14.80;28.36;99714.31;5014760;28;20374;-62
2021/05/03 12:06:34;;;;;;;6.10;3.33;;;;;;;15.04;28.08;99707.47;5014239;28;20373;-62